createdAt,value
2022-12-27T00:00:46.312Z,240.60
2022-12-27T00:03:16.315Z,240.60
2022-12-27T00:05:46.756Z,240.60
2022-12-27T00:08:17.302Z,240.60
2022-12-27T00:10:47.350Z,240.60
2022-12-27T00:13:19.996Z,240.60
2022-12-27T00:15:50.050Z,240.60
2022-12-27T00:18:20.042Z,240.60
2022-12-27T00:20:50.123Z,240.60
2022-12-27T00:23:20.079Z,240.60
2022-12-27T00:25:50.152Z,240.60
2022-12-27T00:28:22.762Z,240.60
2022-12-27T00:30:57.679Z,240.60
2022-12-27T00:33:27.844Z,240.60
2022-12-27T00:35:57.952Z,240.60
2022-12-27T00:38:28.121Z,240.60
2022-12-27T00:40:58.708Z,240.60
2022-12-27T00:43:31.437Z,240.60
2022-12-27T00:46:01.756Z,240.60
2022-12-27T00:48:32.024Z,240.60
2022-12-27T00:51:03.201Z,240.60
2022-12-27T00:53:34.245Z,240.60
2022-12-27T00:56:04.701Z,240.60
2022-12-27T00:58:40.828Z,240.60
2022-12-27T01:01:12.590Z,240.60
2022-12-27T01:03:43.044Z,240.60
2022-12-27T01:06:15.382Z,240.60
2022-12-27T01:08:45.930Z,240.60
2022-12-27T01:11:17.263Z,240.60
2022-12-27T01:13:50.129Z,6.70
2022-12-27T01:16:22.081Z,6.90
2022-12-27T01:18:52.481Z,7.00
2022-12-27T01:21:24.009Z,7.00
2022-12-27T01:23:55.382Z,7.10
2022-12-27T01:26:26.814Z,7.10
2022-12-27T01:28:59.381Z,7.10
2022-12-27T01:31:30.838Z,7.10
2022-12-27T01:34:02.442Z,7.10
2022-12-27T01:36:33.517Z,7.00
2022-12-27T01:39:03.862Z,7.10
2022-12-27T01:41:48.302Z,7.10
2022-12-27T01:44:53.995Z,7.00
2022-12-27T01:47:41.926Z,7.00
2022-12-27T01:50:19.370Z,6.90
2022-12-27T01:52:53.622Z,6.90
2022-12-27T01:55:28.399Z,6.90
2022-12-27T01:58:01.838Z,6.80
2022-12-27T02:00:31.837Z,6.80
2022-12-27T02:03:04.969Z,6.90
2022-12-27T02:05:35.840Z,6.80
2022-12-27T02:08:15.148Z,6.80
2022-12-27T02:10:45.586Z,6.80
2022-12-27T02:13:15.697Z,6.80
2022-12-27T02:15:45.660Z,6.80
2022-12-27T02:18:18.605Z,6.70
2022-12-27T02:21:13.748Z,240.60
2022-12-27T02:24:05.401Z,5.30
2022-12-27T02:26:49.484Z,4.90
2022-12-27T02:29:30.089Z,4.60
2022-12-27T02:32:03.787Z,4.40
2022-12-27T02:34:44.130Z,4.20
2022-12-27T02:37:15.797Z,4.20
2022-12-27T02:39:49.439Z,4.20
2022-12-27T02:42:33.082Z,4.10
2022-12-27T02:45:19.820Z,4.10
2022-12-27T02:48:03.550Z,4.20
2022-12-27T02:50:56.393Z,4.10
2022-12-27T02:53:36.094Z,4.20
2022-12-27T02:56:28.493Z,4.10
2022-12-27T02:59:10.712Z,4.10
2022-12-27T03:02:03.810Z,4.20
2022-12-27T03:04:49.157Z,4.20
2022-12-27T03:07:29.280Z,4.10
2022-12-27T03:10:21.788Z,4.10
2022-12-27T03:13:11.975Z,4.10
2022-12-27T03:15:59.775Z,4.10
2022-12-27T03:18:49.478Z,4.10
2022-12-27T03:21:35.094Z,4.00
2022-12-27T03:24:17.268Z,4.00
2022-12-27T03:26:50.375Z,4.00
2022-12-27T03:29:34.682Z,4.00
2022-12-27T03:32:19.805Z,3.90
2022-12-27T03:34:55.466Z,3.90
2022-12-27T03:37:41.320Z,3.90
2022-12-27T03:40:14.593Z,3.90
2022-12-27T03:42:59.779Z,3.90
2022-12-27T03:45:46.173Z,3.90
2022-12-27T03:48:17.743Z,3.90
2022-12-27T03:50:55.983Z,3.90
2022-12-27T03:53:29.221Z,3.70
2022-12-27T03:55:59.513Z,3.70
2022-12-27T03:58:29.502Z,3.60
2022-12-27T04:00:59.525Z,3.60
2022-12-27T04:03:29.603Z,3.60
2022-12-27T04:06:02.318Z,3.40
2022-12-27T04:08:44.704Z,3.30
2022-12-27T04:11:27.160Z,3.20
2022-12-27T04:14:09.583Z,3.20
2022-12-27T04:16:52.075Z,3.20
2022-12-27T04:19:34.429Z,3.20
2022-12-27T04:22:19.447Z,3.20
2022-12-27T04:25:01.799Z,3.20
2022-12-27T04:27:44.252Z,3.20
2022-12-27T04:30:27.030Z,3.10
2022-12-27T04:33:09.445Z,3.10
2022-12-27T04:35:39.451Z,3.10
2022-12-27T04:38:12.095Z,3.20
2022-12-27T04:40:54.430Z,3.20
2022-12-27T04:43:36.909Z,3.20
2022-12-27T04:46:19.459Z,3.20
2022-12-27T04:49:01.987Z,3.20
2022-12-27T04:51:44.364Z,3.10
2022-12-27T04:54:33.843Z,3.00
2022-12-27T04:57:03.818Z,3.00
2022-12-27T04:59:46.975Z,3.00
2022-12-27T05:02:17.510Z,3.10
2022-12-27T05:04:48.295Z,3.10
2022-12-27T05:07:30.989Z,3.10
2022-12-27T05:10:17.194Z,3.00
2022-12-27T05:12:59.800Z,3.00
2022-12-27T05:15:29.876Z,3.00
2022-12-27T05:18:00.041Z,3.00
2022-12-27T05:20:30.157Z,2.90
2022-12-27T05:23:12.755Z,2.90
2022-12-27T05:25:47.552Z,2.90
2022-12-27T05:28:17.559Z,2.80
2022-12-27T05:30:47.744Z,2.80
2022-12-27T05:33:17.797Z,2.90
2022-12-27T05:35:47.999Z,2.80
2022-12-27T05:38:18.020Z,2.90
2022-12-27T05:40:50.674Z,2.80
2022-12-27T05:43:20.692Z,2.90
2022-12-27T05:45:50.709Z,2.80
2022-12-27T05:48:20.700Z,2.80
2022-12-27T05:50:50.822Z,2.80
2022-12-27T05:53:20.848Z,2.70
2022-12-27T05:55:59.177Z,2.60
2022-12-27T05:58:29.320Z,2.60
2022-12-27T06:01:00.198Z,2.60
2022-12-27T06:03:30.943Z,2.60
2022-12-27T06:06:04.726Z,2.50
2022-12-27T06:08:35.053Z,2.40
2022-12-27T06:11:10.114Z,2.30
2022-12-27T06:13:41.185Z,2.20
2022-12-27T06:16:12.876Z,2.10
2022-12-27T06:18:44.383Z,2.10
2022-12-27T06:21:16.246Z,2.00
2022-12-27T06:23:47.544Z,2.00
2022-12-27T06:26:21.856Z,2.10
2022-12-27T06:28:52.354Z,2.10
2022-12-27T06:31:23.099Z,2.20
2022-12-27T06:33:54.809Z,2.20
2022-12-27T06:36:27.803Z,2.20
2022-12-27T06:38:57.927Z,2.10
2022-12-27T06:41:30.543Z,2.10
2022-12-27T06:44:01.253Z,2.00
2022-12-27T06:46:31.250Z,2.00
2022-12-27T06:49:01.322Z,2.00
2022-12-27T06:51:32.899Z,2.00
2022-12-27T06:54:02.948Z,2.00
2022-12-27T06:56:35.525Z,2.00
2022-12-27T06:59:05.628Z,2.00
2022-12-27T07:01:35.766Z,2.10
2022-12-27T07:04:05.864Z,2.10
2022-12-27T07:06:39.777Z,2.10
2022-12-27T07:09:09.823Z,2.10
2022-12-27T07:11:43.334Z,2.10
2022-12-27T07:14:13.756Z,2.10
2022-12-27T07:16:43.869Z,2.10
2022-12-27T07:19:14.210Z,2.10
2022-12-27T07:21:44.450Z,2.10
2022-12-27T07:24:14.606Z,2.10
2022-12-27T07:26:47.228Z,2.10
2022-12-27T07:29:17.422Z,2.10
2022-12-27T07:31:47.567Z,2.10
2022-12-27T07:34:17.619Z,2.00
2022-12-27T07:36:47.679Z,2.10
2022-12-27T07:39:19.257Z,2.10
2022-12-27T07:41:51.953Z,2.20
2022-12-27T07:44:21.984Z,2.20
2022-12-27T07:46:52.586Z,2.20
2022-12-27T07:49:22.785Z,2.20
2022-12-27T07:51:52.840Z,2.20
2022-12-27T07:54:23.055Z,2.20
2022-12-27T07:56:55.686Z,2.20
2022-12-27T07:59:27.631Z,2.20
2022-12-27T08:02:09.872Z,2.20
2022-12-27T08:04:40.822Z,2.20
2022-12-27T08:07:12.885Z,2.20
2022-12-27T08:09:44.171Z,2.20
2022-12-27T08:12:17.299Z,2.20
2022-12-27T08:14:48.178Z,2.20
2022-12-27T08:17:20.924Z,2.30
2022-12-27T08:19:51.373Z,2.30
2022-12-27T08:22:21.460Z,2.30
2022-12-27T08:24:51.522Z,2.30
2022-12-27T08:27:28.026Z,2.30
2022-12-27T08:29:58.051Z,2.30
2022-12-27T08:32:28.171Z,2.40
2022-12-27T08:35:12.127Z,2.40
2022-12-27T08:37:48.239Z,2.40
2022-12-27T08:40:18.293Z,2.50
2022-12-27T08:42:50.995Z,2.40
2022-12-27T08:45:21.043Z,2.50
2022-12-27T08:47:51.083Z,2.60
2022-12-27T08:50:21.163Z,2.60
2022-12-27T08:52:51.419Z,2.60
2022-12-27T08:55:21.462Z,2.60
2022-12-27T08:57:54.039Z,2.60
2022-12-27T09:00:24.107Z,2.70
2022-12-27T09:02:54.107Z,2.70
2022-12-27T09:05:24.261Z,2.80
2022-12-27T09:07:54.716Z,2.90
2022-12-27T09:10:26.304Z,2.90
2022-12-27T09:12:58.992Z,3.00
2022-12-27T09:15:28.993Z,2.80
2022-12-27T09:17:59.265Z,2.90
2022-12-27T09:20:29.270Z,2.90
2022-12-27T09:22:59.295Z,2.90
2022-12-27T09:25:29.448Z,2.90
2022-12-27T09:28:02.168Z,2.90
2022-12-27T09:30:32.189Z,2.90
2022-12-27T09:33:02.190Z,3.00
2022-12-27T09:35:36.939Z,3.00
2022-12-27T09:38:09.198Z,3.00
2022-12-27T09:40:40.323Z,3.00
2022-12-27T09:43:23.968Z,3.00
2022-12-27T09:46:00.032Z,3.00
2022-12-27T09:48:34.995Z,2.90
2022-12-27T09:51:08.612Z,2.90
2022-12-27T09:53:44.790Z,2.90
2022-12-27T09:56:15.969Z,3.00
2022-12-27T09:58:52.851Z,3.00
2022-12-27T10:01:25.889Z,3.00
2022-12-27T10:03:56.875Z,3.00
2022-12-27T10:06:43.084Z,3.00
2022-12-27T10:09:30.777Z,3.00
2022-12-27T10:12:04.905Z,2.90
2022-12-27T10:14:52.011Z,2.80
2022-12-27T10:17:31.555Z,2.80
2022-12-27T10:20:16.515Z,2.70
2022-12-27T10:22:49.593Z,2.60
2022-12-27T10:25:22.433Z,2.60
2022-12-27T10:27:53.373Z,2.60
2022-12-27T10:30:26.300Z,2.60
2022-12-27T10:32:56.308Z,2.60
2022-12-27T10:35:29.029Z,2.50
2022-12-27T10:38:01.832Z,2.60
2022-12-27T10:40:41.027Z,2.60
2022-12-27T10:43:17.297Z,2.70
2022-12-27T10:45:50.001Z,2.80
2022-12-27T10:48:22.806Z,2.90
2022-12-27T10:50:58.440Z,3.00
2022-12-27T10:53:40.104Z,3.10
2022-12-27T10:56:18.406Z,3.10
2022-12-27T10:58:56.611Z,3.20
2022-12-27T11:01:34.026Z,3.20
2022-12-27T11:04:21.014Z,3.30
2022-12-27T11:06:52.967Z,3.30
2022-12-27T11:09:31.613Z,3.30
2022-12-27T11:12:19.598Z,3.20
2022-12-27T11:15:00.954Z,3.10
2022-12-27T11:17:39.326Z,3.10
2022-12-27T11:20:22.975Z,3.00
2022-12-27T11:22:55.260Z,3.10
2022-12-27T11:25:25.636Z,3.00
2022-12-27T11:27:58.687Z,3.00
2022-12-27T11:30:32.134Z,3.00
2022-12-27T11:33:07.322Z,3.20
2022-12-27T11:35:40.058Z,3.30
2022-12-27T11:38:20.234Z,3.40
2022-12-27T11:40:59.621Z,3.50
2022-12-27T11:43:32.389Z,3.60
2022-12-27T11:46:03.914Z,3.60
2022-12-27T11:48:39.396Z,3.60
2022-12-27T11:51:27.622Z,3.60
2022-12-27T11:54:16.784Z,3.50
2022-12-27T11:56:49.055Z,3.50
2022-12-27T11:59:31.956Z,3.50
2022-12-27T12:02:18.011Z,3.60
2022-12-27T12:05:18.020Z,3.80
2022-12-27T12:08:04.585Z,3.90
2022-12-27T12:10:45.077Z,3.80
2022-12-27T12:13:37.131Z,3.80
2022-12-27T12:16:29.916Z,3.70
2022-12-27T12:19:08.874Z,3.70
2022-12-27T12:21:44.562Z,3.70
2022-12-27T12:24:44.976Z,3.40
2022-12-27T12:27:46.043Z,3.40
2022-12-27T12:30:30.180Z,3.30
2022-12-27T12:33:10.767Z,3.30
2022-12-27T12:35:52.673Z,3.40
2022-12-27T12:38:27.367Z,3.30
2022-12-27T12:41:19.707Z,3.20
2022-12-27T12:44:19.611Z,3.10
2022-12-27T12:46:57.163Z,3.20
2022-12-27T12:49:41.262Z,3.20
2022-12-27T12:52:28.642Z,3.20
2022-12-27T12:55:36.564Z,3.30
2022-12-27T12:58:29.449Z,3.30
2022-12-27T13:01:13.978Z,3.40
2022-12-27T13:04:09.663Z,3.40
2022-12-27T13:06:53.705Z,3.40
2022-12-27T13:09:35.574Z,3.40
2022-12-27T13:12:08.993Z,3.50
2022-12-27T13:14:56.150Z,3.40
2022-12-27T13:17:33.238Z,3.40
2022-12-27T13:20:20.805Z,3.40
2022-12-27T13:22:59.526Z,3.30
2022-12-27T13:25:34.566Z,3.30
2022-12-27T13:28:18.693Z,3.30
2022-12-27T13:30:58.573Z,3.20
2022-12-27T13:33:37.379Z,3.20
2022-12-27T13:36:20.162Z,3.20
2022-12-27T13:39:09.535Z,3.20
2022-12-27T13:41:53.149Z,3.30
2022-12-27T13:44:36.769Z,3.40
2022-12-27T13:47:39.778Z,3.40
2022-12-27T13:50:26.289Z,3.40
2022-12-27T13:53:06.805Z,3.40
2022-12-27T13:55:40.981Z,3.40
2022-12-27T13:58:28.795Z,3.30
2022-12-27T14:01:04.476Z,3.30
2022-12-27T14:04:05.576Z,3.30
2022-12-27T14:06:47.320Z,3.20
2022-12-27T14:09:30.797Z,3.10
2022-12-27T14:12:16.444Z,3.10
2022-12-27T14:14:47.191Z,3.00
2022-12-27T14:17:27.349Z,3.00
2022-12-27T14:20:13.675Z,3.00
2022-12-27T14:23:24.899Z,3.00
2022-12-27T14:26:35.896Z,3.10
2022-12-27T14:29:31.671Z,3.10
2022-12-27T14:32:25.003Z,2.90
2022-12-27T14:35:24.942Z,2.90
2022-12-27T14:38:32.448Z,2.90
2022-12-27T14:41:32.599Z,3.00
2022-12-27T14:44:31.338Z,3.00
2022-12-27T14:47:40.061Z,3.00
2022-12-27T14:50:39.433Z,3.00
2022-12-27T14:53:15.769Z,2.90
2022-12-27T14:56:06.307Z,2.90
2022-12-27T14:58:59.700Z,3.00
2022-12-27T15:01:48.606Z,2.90
2022-12-27T15:04:46.899Z,2.90
2022-12-27T15:07:39.224Z,2.80
2022-12-27T15:10:18.779Z,2.80
2022-12-27T15:12:54.483Z,2.80
2022-12-27T15:15:30.570Z,2.90
2022-12-27T15:18:28.482Z,2.90
2022-12-27T15:21:18.675Z,2.80
2022-12-27T15:23:54.536Z,2.80
2022-12-27T15:26:35.904Z,2.70
2022-12-27T15:29:18.098Z,2.70
2022-12-27T15:32:02.618Z,2.70
2022-12-27T15:34:44.631Z,2.70
2022-12-27T15:37:44.631Z,2.70
2022-12-27T15:40:44.212Z,2.80
2022-12-27T15:43:31.841Z,2.90
2022-12-27T15:46:13.831Z,3.00
2022-12-27T15:49:03.656Z,2.90
2022-12-27T15:51:36.785Z,2.90
2022-12-27T15:54:24.541Z,2.90
2022-12-27T15:57:15.409Z,2.80
2022-12-27T15:59:51.335Z,2.90
2022-12-27T16:02:32.871Z,2.90
2022-12-27T16:05:15.074Z,2.90
2022-12-27T16:07:47.917Z,3.00
2022-12-27T16:10:38.413Z,3.00
2022-12-27T16:13:23.266Z,3.10
2022-12-27T16:15:57.531Z,3.10
2022-12-27T16:19:03.173Z,3.10
2022-12-27T16:21:44.325Z,3.00
2022-12-27T16:28:20.613Z,3.00
2022-12-27T16:31:15.893Z,2.90
2022-12-27T16:33:49.802Z,2.90
2022-12-27T16:36:24.722Z,3.00
2022-12-27T16:39:05.881Z,3.00
2022-12-27T16:42:03.725Z,3.10
2022-12-27T16:44:48.463Z,3.00
2022-12-27T16:47:47.011Z,2.90
2022-12-27T16:50:46.685Z,2.80
2022-12-27T16:53:33.354Z,2.60
2022-12-27T16:56:15.350Z,2.50
2022-12-27T16:58:46.442Z,2.50
2022-12-27T17:01:38.334Z,2.60
2022-12-27T17:04:11.185Z,2.70
2022-12-27T17:06:59.224Z,2.80
2022-12-27T17:09:46.270Z,3.00
2022-12-27T17:12:24.327Z,3.00
2022-12-27T17:14:57.919Z,2.90
2022-12-27T17:17:28.451Z,3.00
2022-12-27T17:20:04.329Z,2.90
2022-12-27T17:22:35.961Z,2.90
2022-12-27T17:25:06.835Z,3.00
2022-12-27T17:27:51.976Z,3.00
2022-12-27T17:30:22.977Z,2.90
2022-12-27T17:33:08.621Z,2.90
2022-12-27T17:35:51.289Z,2.90
2022-12-27T17:38:32.570Z,2.90
2022-12-27T17:41:15.144Z,2.80
2022-12-27T17:44:04.601Z,2.80
2022-12-27T17:46:41.847Z,2.80
2022-12-27T17:49:12.737Z,2.70
2022-12-27T17:52:07.535Z,2.80
2022-12-27T17:54:49.891Z,2.80
2022-12-27T17:57:46.506Z,2.70
2022-12-27T18:00:25.396Z,2.70
2022-12-27T18:02:56.411Z,2.60
2022-12-27T18:05:30.642Z,2.70
2022-12-27T18:08:08.114Z,2.70
2022-12-27T18:10:39.364Z,2.60
2022-12-27T18:13:09.971Z,2.60
2022-12-27T18:15:40.703Z,2.70
2022-12-27T18:18:11.768Z,2.80
2022-12-27T18:20:43.828Z,2.80
2022-12-27T18:23:22.786Z,2.80
2022-12-27T18:25:58.580Z,2.80
2022-12-27T18:28:33.589Z,2.80
2022-12-27T18:31:07.480Z,2.80
2022-12-27T18:33:40.763Z,2.90
2022-12-27T18:36:13.134Z,2.80
2022-12-27T18:38:48.724Z,2.70
2022-12-27T18:41:21.280Z,2.80
2022-12-27T18:43:54.942Z,2.80
2022-12-27T18:46:28.861Z,2.90
2022-12-27T18:48:59.202Z,2.90
2022-12-27T18:51:33.945Z,3.00
2022-12-27T18:54:24.064Z,2.90
2022-12-27T18:56:55.327Z,2.90
2022-12-27T18:59:28.017Z,2.90
2022-12-27T19:02:00.109Z,2.90
2022-12-27T19:04:31.726Z,2.90
2022-12-27T19:07:09.872Z,3.00
2022-12-27T19:09:45.921Z,3.00
2022-12-27T19:12:25.820Z,3.00
2022-12-27T19:14:56.732Z,3.00
2022-12-27T19:17:30.707Z,2.90
2022-12-27T19:20:03.382Z,2.80
2022-12-27T19:22:37.119Z,2.90
2022-12-27T19:25:22.395Z,3.00
2022-12-27T19:28:04.102Z,2.90
2022-12-27T19:30:35.890Z,2.90
2022-12-27T19:33:10.117Z,2.90
2022-12-27T19:35:40.193Z,2.90
2022-12-27T19:38:10.220Z,2.90
2022-12-27T19:40:42.876Z,2.90
2022-12-27T19:43:13.510Z,2.90
2022-12-27T19:45:43.520Z,2.90
2022-12-27T19:48:14.218Z,2.90
2022-12-27T19:50:47.858Z,2.90
2022-12-27T19:53:19.812Z,2.90
2022-12-27T19:55:52.412Z,2.90
2022-12-27T19:58:25.461Z,2.90
2022-12-27T20:00:55.832Z,2.80
2022-12-27T20:03:26.253Z,2.80
2022-12-27T20:06:13.953Z,2.70
2022-12-27T20:08:48.339Z,2.80
2022-12-27T20:11:22.623Z,2.70
2022-12-27T20:13:52.763Z,2.70
2022-12-27T20:16:23.246Z,2.70
2022-12-27T20:18:53.299Z,2.60
2022-12-27T20:21:23.809Z,2.50
2022-12-27T20:23:53.974Z,2.50
2022-12-27T20:26:27.795Z,2.40
2022-12-27T20:28:57.847Z,2.50
2022-12-27T20:31:27.893Z,2.60
2022-12-27T20:33:58.812Z,2.60
2022-12-27T20:36:28.927Z,2.60
2022-12-27T20:38:59.025Z,2.40
2022-12-27T20:41:31.479Z,2.50
2022-12-27T20:44:01.843Z,2.50
2022-12-27T20:46:31.988Z,2.50
2022-12-27T20:49:03.565Z,2.50
2022-12-27T20:51:34.495Z,2.40
2022-12-27T20:54:06.419Z,2.40
2022-12-27T20:56:39.043Z,2.40
2022-12-27T20:59:09.225Z,2.50
2022-12-27T21:01:39.333Z,2.40
2022-12-27T21:04:09.547Z,2.40
2022-12-27T21:06:39.506Z,2.40
2022-12-27T21:09:10.108Z,2.40
2022-12-27T21:11:42.705Z,2.30
2022-12-27T21:14:14.188Z,2.30
2022-12-27T21:16:44.410Z,2.20
2022-12-27T21:19:15.087Z,2.20
2022-12-27T21:21:45.110Z,2.20
2022-12-27T21:24:15.277Z,2.20
2022-12-27T21:26:51.944Z,2.30
2022-12-27T21:29:26.181Z,2.20
2022-12-27T21:31:56.287Z,2.10
2022-12-27T21:34:26.649Z,2.00
2022-12-27T21:36:57.153Z,2.00
2022-12-27T21:39:27.193Z,2.10
2022-12-27T21:41:59.700Z,2.10
2022-12-27T21:44:30.086Z,2.10
2022-12-27T21:47:00.415Z,2.10
2022-12-27T21:49:30.635Z,2.00
2022-12-27T21:52:00.569Z,2.00
2022-12-27T21:54:40.882Z,1.90
2022-12-27T21:57:13.512Z,1.90
2022-12-27T21:59:43.491Z,1.80
2022-12-27T22:02:13.732Z,1.70
2022-12-27T22:04:43.946Z,1.50
2022-12-27T22:07:13.905Z,1.40
2022-12-27T22:09:43.865Z,1.30
2022-12-27T22:12:16.567Z,1.10
2022-12-27T22:14:46.810Z,0.90
2022-12-27T22:17:16.798Z,0.90
2022-12-27T22:19:46.859Z,0.80
2022-12-27T22:22:16.879Z,0.70
2022-12-27T22:24:46.809Z,0.70
2022-12-27T22:27:19.385Z,0.50
2022-12-27T22:29:49.454Z,0.40
2022-12-27T22:32:19.417Z,0.40
2022-12-27T22:34:49.377Z,0.30
2022-12-27T22:37:19.427Z,0.30
2022-12-27T22:39:49.354Z,0.20
2022-12-27T22:42:21.930Z,0.40
2022-12-27T22:44:51.946Z,0.50
2022-12-27T22:47:26.718Z,0.50
2022-12-27T22:49:57.836Z,0.60
2022-12-27T22:52:27.883Z,0.60
2022-12-27T22:55:05.483Z,0.60
2022-12-27T22:57:39.791Z,0.80
2022-12-27T23:00:12.512Z,1.00
2022-12-27T23:02:42.803Z,1.10
2022-12-27T23:05:13.110Z,1.30
2022-12-27T23:08:05.156Z,1.30
2022-12-27T23:10:33.218Z,1.20
2022-12-27T23:13:05.882Z,1.10
2022-12-27T23:15:35.914Z,0.90
2022-12-27T23:18:06.022Z,0.90
2022-12-27T23:20:36.603Z,0.90
2022-12-27T23:23:06.580Z,0.80
2022-12-27T23:25:38.537Z,0.60
2022-12-27T23:28:11.616Z,0.60
2022-12-27T23:30:41.719Z,0.50
2022-12-27T23:33:11.840Z,0.40
2022-12-27T23:35:41.831Z,0.30
2022-12-27T23:38:11.847Z,0.20
2022-12-27T23:40:41.887Z,0.10
2022-12-27T23:43:50.700Z,0.10
2022-12-27T23:46:07.868Z,-0.20
2022-12-27T23:48:38.084Z,-0.20
2022-12-27T23:51:08.456Z,-0.30
2022-12-27T23:53:38.546Z,-0.40
2022-12-27T23:56:10.754Z,-0.40
2022-12-27T23:58:43.540Z,-0.40
